Time;durP1;ratioP1;P1;durP2;ratioP2;P2;SDS_P1;SDS_P2;PMS_P1;PMS_P2;Temp;Humidity;BMP_temperature;BMP_pressure;BME280_temperature;BME280_humidity;BME280_pressure;Samples;Min_cycle;Max_cycle;Signal;HPM_P1;HPM_P2
2022/11/07 00:02:39;;;;;;;8.27;5.72;;;11.00;58.50;;;9.85;60.67;100801.78;12178262;19;20039;-89
2022/11/07 00:06:41;;;;;;;8.15;6.00;;;10.90;58.50;;;9.60;60.55;100763.06;12178794;19;20031;-87
2022/11/07 00:10:43;;;;;;;7.47;5.95;;;11.00;58.50;;;9.61;60.52;100767.34;12174175;19;20178;-89
2022/11/07 00:14:44;;;;;;;8.18;6.18;;;11.00;58.50;;;9.88;60.58;100801.59;12174151;19;20986;-88
2022/11/07 00:18:46;;;;;;;7.57;5.63;;;11.00;58.50;;;9.80;60.66;100793.34;12175095;19;20440;-88
2022/11/07 00:22:48;;;;;;;8.15;6.38;;;11.00;58.50;;;9.83;60.55;100791.44;12181579;19;20014;-89
2022/11/07 00:26:51;;;;;;;7.82;5.78;;;11.20;58.60;;;9.47;60.51;100732.38;12183088;19;20852;-87
2022/11/07 00:30:53;;;;;;;7.63;5.95;;;11.30;58.60;;;9.72;60.50;100781.56;12189853;19;20751;-88
2022/11/07 00:34:54;;;;;;;7.65;6.30;;;11.00;58.50;;;9.50;60.56;100744.44;12182910;19;20022;-89
2022/11/07 00:38:56;;;;;;;9.18;6.85;;;11.00;58.60;;;9.84;60.53;100794.88;12181683;19;20025;-89
2022/11/07 00:42:58;;;;;;;8.30;5.75;;;11.00;58.50;;;9.60;60.59;100758.69;12182204;19;20028;-89
2022/11/07 00:46:59;;;;;;;9.57;7.05;;;11.00;58.60;;;9.73;60.54;100770.19;12182661;19;21029;-88
2022/11/07 00:51:15;;;;;;;7.97;5.97;;;11.20;58.70;;;9.85;60.57;100781.75;12177759;19;20481;-88
2022/11/07 00:55:17;;;;;;;9.02;6.03;;;11.20;58.80;;;9.79;60.66;100781.22;12168529;19;20784;-88
2022/11/07 00:59:19;;;;;;;8.50;5.70;;;11.00;58.70;;;9.84;60.56;100774.84;12163912;19;20546;-88
2022/11/07 01:07:41;;;;;;;8.23;6.65;;;11.00;58.70;;;9.79;60.60;100761.19;12166709;19;20018;-88
2022/11/07 01:11:44;;;;;;;6.25;5.18;;;11.00;58.80;;;9.84;60.57;100774.00;12170365;19;20019;-88
2022/11/07 01:15:45;;;;;;;7.55;5.68;;;11.00;58.80;;;9.77;60.80;100751.78;12176125;19;20491;-88
2022/11/07 01:19:47;;;;;;;6.88;5.95;;;11.30;58.90;;;9.62;60.55;100728.19;12176837;19;20395;-88
2022/11/07 01:23:49;;;;;;;6.97;5.82;;;11.20;58.80;;;9.73;60.64;100751.94;12184629;19;20010;-89
2022/11/07 01:27:51;;;;;;;6.30;5.18;;;11.00;58.80;;;9.77;60.91;100743.94;12179378;19;20303;-88
2022/11/07 01:31:53;;;;;;;7.57;5.68;;;11.30;58.90;;;9.89;60.69;100769.41;12179011;19;20883;-88
2022/11/07 01:35:58;;;;;;;7.80;5.38;;;11.10;58.80;;;9.81;60.63;100750.69;12181190;19;21050;-87
2022/11/07 01:39:59;;;;;;;9.27;6.35;;;11.10;58.70;;;9.87;60.78;100747.78;12177364;19;20018;-87
2022/11/07 01:44:06;;;;;;;7.80;5.47;;;11.10;58.80;;;9.95;60.65;100761.25;12184670;19;20375;-88
2022/11/07 01:48:08;;;;;;;8.90;5.93;;;11.10;58.70;;;9.93;60.66;100750.06;12184389;19;20018;-87
2022/11/07 01:52:30;;;;;;;8.02;5.82;;;11.10;58.70;;;9.84;60.63;100727.06;12181981;19;20022;-86
2022/11/07 01:56:37;;;;;;;7.13;5.60;;;11.40;58.80;;;9.93;60.65;100748.28;12177669;19;20036;-88
2022/11/07 02:00:39;;;;;;;7.65;5.50;;;11.10;58.60;;;9.89;60.79;100745.94;12177788;19;20018;-88
2022/11/07 02:04:40;;;;;;;11.02;4.97;;;11.10;58.70;;;9.74;60.61;100718.88;12179541;19;20045;-87
2022/11/07 02:08:44;;;;;;;6.88;5.45;;;11.10;58.70;;;9.83;60.91;100735.78;12179054;19;20019;-87
2022/11/07 02:12:46;;;;;;;7.47;5.43;;;11.10;58.70;;;9.74;60.63;100724.91;12176108;19;20470;-88
2022/11/07 02:16:47;;;;;;;7.60;5.25;;;11.10;58.80;;;9.86;60.52;100728.69;12172239;19;20363;-87
2022/11/07 02:20:51;;;;;;;6.63;4.88;;;11.10;58.80;;;9.98;61.01;100750.66;12176496;19;20455;-87
2022/11/07 02:24:59;;;;;;;6.15;5.28;;;11.10;59.10;;;9.80;60.73;100710.72;12174731;19;20014;-88
2022/11/07 02:29:06;;;;;;;6.22;5.07;;;11.20;58.80;;;9.98;60.79;100735.84;12175736;19;20660;-87
2022/11/07 02:33:21;;;;;;;7.72;4.78;;;11.20;58.80;;;9.96;60.73;100742.06;12178170;19;20129;-88
2022/11/07 02:37:37;;;;;;;5.55;4.32;;;11.20;58.90;;;9.95;60.67;100729.94;12175259;19;20014;-88
2022/11/07 02:41:39;;;;;;;5.20;4.53;;;11.30;58.90;;;10.07;60.88;100739.75;12176054;19;20313;-87
2022/11/07 02:45:44;;;;;;;6.25;4.28;;;11.30;58.80;;;9.88;60.78;100699.88;12171653;19;20504;-88
2022/11/07 02:49:45;;;;;;;;;;;11.20;58.80;;;9.96;60.74;100718.59;12172270;19;20046;-88
2022/11/07 02:53:47;;;;;;;4.28;3.72;;;11.30;58.80;;;10.07;60.88;100739.75;12175374;19;20444;-88
2022/11/07 02:57:49;;;;;;;5.38;4.10;;;11.30;58.80;;;10.10;60.73;100742.19;12171605;19;20367;-88
2022/11/07 03:01:51;;;;;;;5.63;4.45;;;11.30;58.70;;;10.03;60.66;100725.16;12177985;19;20388;-88
2022/11/07 03:05:52;;;;;;;5.40;4.15;;;11.30;58.70;;;10.06;60.84;100732.84;12179336;19;20030;-87
2022/11/07 03:09:54;;;;;;;4.47;3.88;;;11.30;58.70;;;9.90;60.84;100717.16;12175958;19;20039;-88
2022/11/07 03:13:56;;;;;;;5.75;4.85;;;11.40;58.70;;;10.08;60.81;100741.44;12173412;19;20324;-87
2022/11/07 03:17:58;;;;;;;6.10;4.93;;;11.60;58.80;;;10.09;60.87;100757.91;12171544;19;20018;-87
2022/11/07 03:22:00;;;;;;;4.82;4.32;;;11.20;58.70;;;10.01;60.78;100750.50;12173025;19;20018;-88
2022/11/07 03:26:03;;;;;;;5.22;4.65;;;11.30;58.80;;;10.08;60.84;100757.09;12169701;19;21027;-87
2022/11/07 03:30:06;;;;;;;5.57;4.38;;;11.20;58.70;;;10.11;60.86;100767.34;12166079;19;20765;-88
2022/11/07 03:34:08;;;;;;;5.82;4.88;;;11.30;58.80;;;10.04;60.94;100760.75;12169718;19;20284;-88
2022/11/07 03:38:10;;;;;;;4.28;3.88;;;11.60;59.00;;;10.09;60.80;100776.19;12174309;19;20414;-88
2022/11/07 03:42:12;;;;;;;5.22;4.40;;;11.30;58.90;;;10.10;60.74;100781.34;12183980;19;20646;-87
2022/11/07 03:46:16;;;;;;;4.88;4.28;;;11.30;58.90;;;10.12;60.89;100784.69;12166777;19;20291;-87
2022/11/07 03:50:21;;;;;;;4.95;4.13;;;11.30;59.00;;;10.18;60.83;100799.22;12173278;19;20322;-88
2022/11/07 03:54:22;;;;;;;5.82;4.47;;;11.40;59.00;;;10.10;60.89;100788.28;12174485;19;20046;-86
2022/11/07 03:58:24;;;;;;;6.55;4.90;;;11.40;59.10;;;10.24;60.96;100803.25;12177153;19;20022;-89
2022/11/07 04:02:26;;;;;;;4.78;3.78;;;11.50;59.10;;;10.05;60.87;100772.06;12177540;19;20018;-89
2022/11/07 04:06:28;;;;;;;3.67;3.28;;;11.40;59.10;;;10.26;60.86;100799.66;12170802;19;20022;-89
2022/11/07 04:10:30;;;;;;;4.20;3.80;;;11.40;59.10;;;10.28;60.91;100794.38;12164893;19;20014;-89
2022/11/07 04:18:51;;;;;;;4.57;3.63;;;11.50;59.50;;;10.41;61.04;100811.91;12161206;19;20391;-89
2022/11/07 04:22:53;;;;;;;5.13;3.97;;;11.50;59.10;;;10.32;61.09;100795.91;12166296;19;20105;-88
2022/11/07 04:31:14;;;;;;;4.13;3.67;;;11.60;59.10;;;10.39;61.11;100802.47;12159629;19;20024;-89
2022/11/07 04:35:18;;;;;;;4.18;3.78;;;11.90;59.30;;;10.42;61.30;100797.06;12159925;19;20007;-88
2022/11/07 04:39:20;;;;;;;4.32;3.92;;;11.70;59.50;;;10.51;60.88;100806.19;12158305;19;20399;-88
2022/11/07 04:43:24;;;;;;;4.60;3.55;;;12.00;59.30;;;10.27;61.07;100756.13;12160096;19;20022;-88
2022/11/07 04:47:26;;;;;;;3.60;3.28;;;11.80;59.10;;;10.60;61.19;100797.88;12156336;19;20033;-88
2022/11/07 04:51:27;;;;;;;4.15;3.72;;;11.80;59.40;;;10.68;61.32;100815.72;12159938;19;20050;-89
2022/11/07 04:55:29;;;;;;;4.10;3.53;;;11.90;59.00;;;10.54;61.01;100783.38;12158158;19;20015;-88
2022/11/07 04:59:31;;;;;;;5.28;3.25;;;11.90;58.90;;;10.75;61.08;100825.78;12158354;19;20022;-89
2022/11/07 05:03:33;;;;;;;4.20;3.67;;;12.00;58.90;;;10.79;61.08;100821.22;12158266;19;20944;-88
2022/11/07 05:07:34;;;;;;;4.32;3.83;;;12.00;58.90;;;10.86;61.19;100827.78;12160013;19;20109;-88
2022/11/07 05:11:36;;;;;;;3.53;3.17;;;12.20;58.90;;;10.90;61.08;100828.47;12161201;19;20015;-88
2022/11/07 05:15:39;;;;;;;4.30;3.50;;;12.00;58.80;;;10.81;61.10;100809.75;12159433;19;20526;-88
2022/11/07 05:19:44;;;;;;;4.20;3.70;;;12.10;58.80;;;10.84;61.15;100820.03;12154628;19;20370;-88
2022/11/07 05:23:46;;;;;;;4.18;3.70;;;12.10;58.80;;;10.77;61.00;100813.44;12157420;19;20017;-89
2022/11/07 05:27:47;;;;;;;3.80;3.22;;;12.40;58.90;;;10.75;61.15;100804.88;12155364;19;20038;-89
2022/11/07 05:31:49;;;;;;;3.63;3.28;;;12.20;58.70;;;11.03;60.99;100835.53;12158751;19;20033;-88
2022/11/07 05:35:50;;;;;;;3.47;3.10;;;12.30;58.70;;;10.98;61.01;100828.88;12154300;19;20063;-88
2022/11/07 05:39:52;;;;;;;3.42;3.10;;;12.20;58.60;;;10.75;60.90;100783.97;12153137;19;20486;-89
2022/11/07 05:43:53;;;;;;;3.78;3.38;;;12.30;58.60;;;11.03;60.99;100825.09;12155545;19;20877;-89
2022/11/07 05:48:00;;;;;;;4.95;3.10;;;12.30;58.60;;;10.94;60.98;100816.94;12149485;19;20931;-89
2022/11/07 05:52:01;;;;;;;6.15;3.50;;;12.60;58.70;;;11.16;61.12;100853.16;12151400;19;20018;-88
2022/11/07 05:56:03;;;;;;;3.30;3.00;;;12.30;58.50;;;11.16;61.11;100861.00;12152125;19;20019;-88
2022/11/07 06:00:06;;;;;;;4.18;3.10;;;12.40;58.50;;;11.00;61.00;100842.72;12153069;19;20601;-88
2022/11/07 06:04:13;;;;;;;3.25;2.95;;;12.40;58.40;;;11.21;60.96;100874.66;12170077;19;20025;-88
2022/11/07 06:08:15;;;;;;;3.97;3.05;;;12.40;58.40;;;11.03;61.10;100840.75;12167916;19;20046;-88
2022/11/07 06:12:17;;;;;;;3.05;2.75;;;12.40;58.30;;;11.21;60.96;100874.66;12174743;19;20053;-89
2022/11/07 06:16:18;;;;;;;3.17;2.95;;;12.40;58.30;;;11.25;60.81;100884.84;12169024;19;20019;-88
2022/11/07 06:20:20;;;;;;;3.35;3.05;;;12.50;58.30;;;11.31;61.00;100891.50;12173445;19;20023;-89
2022/11/07 06:24:22;;;;;;;2.83;2.63;;;12.70;58.40;;;11.32;60.98;100897.59;12176521;19;20583;-88
2022/11/07 06:28:24;;;;;;;3.35;2.83;;;12.50;58.30;;;11.11;60.96;100868.25;12177948;19;20051;-89
2022/11/07 06:32:27;;;;;;;3.00;2.70;;;12.50;58.30;;;11.13;60.99;100871.63;12178794;19;20021;-88
2022/11/07 06:36:29;;;;;;;2.67;2.47;;;12.80;58.40;;;11.37;60.98;100901.63;12184150;19;20041;-88
2022/11/07 06:40:31;;;;;;;2.70;2.50;;;12.50;58.30;;;11.20;60.92;100876.41;12178272;19;20378;-88
2022/11/07 06:44:35;;;;;;;2.90;2.42;;;12.60;58.30;;;11.32;60.99;100881.91;12183277;19;20027;-88
2022/11/07 06:48:37;;;;;;;2.95;2.60;;;12.60;58.30;;;11.35;60.80;100890.41;12177399;19;20330;-88
2022/11/07 06:52:39;;;;;;;2.38;2.13;;;12.60;58.30;;;11.44;60.83;100913.44;12181494;19;20047;-89
2022/11/07 06:56:41;;;;;;;2.33;2.13;;;12.70;58.40;;;11.52;60.94;100926.91;12179796;19;20021;-89
2022/11/07 07:00:43;;;;;;;2.80;2.53;;;12.70;58.30;;;11.32;60.79;100887.16;12181502;19;20352;-88
2022/11/07 07:04:47;;;;;;;2.47;2.28;;;13.00;58.40;;;11.36;60.71;100889.47;12173548;19;20868;-89
2022/11/07 07:08:49;;;;;;;2.00;1.80;;;12.70;58.30;;;11.56;60.81;100911.91;12164553;19;20371;-88
2022/11/07 07:12:52;;;;;;;2.55;2.10;;;12.90;58.40;;;11.49;60.87;100911.41;12171800;19;20026;-86
2022/11/07 07:16:57;;;;;;;2.35;2.10;;;12.70;58.30;;;11.51;60.77;100903.47;12165736;19;20070;-87
2022/11/07 07:21:07;;;;;;;2.72;2.40;;;12.80;58.30;;;11.52;60.77;100923.47;12159257;19;20344;-89
2022/11/07 07:25:09;;;;;;;2.50;2.28;;;12.80;58.30;;;11.61;60.91;100927.31;12171346;19;20019;-88
2022/11/07 07:29:11;;;;;;;2.08;1.98;;;12.80;58.30;;;11.38;60.72;100885.00;12172196;19;20392;-90
2022/11/07 07:33:12;;;;;;;3.35;2.22;;;12.80;58.30;;;11.71;60.86;100934.56;12179492;19;20025;-89
2022/11/07 07:37:14;;;;;;;2.67;2.10;;;12.90;58.40;;;11.40;60.81;100879.72;12159897;19;20676;-87
2022/11/07 07:41:17;;;;;;;3.50;2.47;;;12.90;58.30;;;11.56;60.72;100922.38;12162448;19;20018;-89
2022/11/07 07:45:22;;;;;;;3.45;2.17;;;12.90;58.30;;;11.69;60.90;100928.59;12163998;19;20480;-88
2022/11/07 07:49:23;;;;;;;4.05;1.92;;;13.20;58.50;;;11.86;60.86;100948.59;12164771;19;20093;-89
2022/11/07 07:53:25;;;;;;;3.40;1.80;;;12.90;58.30;;;11.78;60.75;100927.22;12177050;19;20594;-89
2022/11/07 07:57:27;;;;;;;2.28;2.03;;;13.20;58.50;;;11.90;60.81;100937.00;12173070;19;20010;-87
2022/11/07 08:01:29;;;;;;;1.98;1.80;;;13.00;58.40;;;11.81;60.78;100916.59;12183886;19;20035;-90
2022/11/07 08:05:30;;;;;;;2.05;1.63;;;13.10;58.40;;;11.98;60.83;100930.50;12163185;19;20758;-88
2022/11/07 08:09:36;;;;;;;1.90;1.80;;;13.10;58.40;;;11.81;60.84;100907.91;12154982;19;20439;-88
2022/11/07 08:13:38;;;;;;;2.55;2.33;;;13.10;58.30;;;12.09;60.84;100951.66;12170356;19;20018;-88
2022/11/07 08:17:40;;;;;;;2.03;1.75;;;13.20;58.30;;;11.92;60.73;100911.59;12165652;19;20030;-88
2022/11/07 08:21:43;;;;;;;2.80;2.30;;;13.20;58.30;;;12.02;60.84;100932.88;12166709;19;20015;-88
2022/11/07 08:25:55;;;;;;;2.15;1.95;;;13.20;58.30;;;11.85;60.78;100915.47;12173485;19;20010;-89
2022/11/07 08:29:57;;;;;;;2.45;2.08;;;13.30;58.30;;;12.21;60.65;100958.81;12176530;19;20591;-88
2022/11/07 08:33:59;;;;;;;1.98;1.77;;;13.60;58.40;;;12.21;60.85;100964.06;12166128;19;20464;-89
2022/11/07 08:38:01;;;;;;;2.03;1.60;;;13.30;58.30;;;12.26;60.77;100967.25;12160074;19;21020;-89
2022/11/07 08:42:03;;;;;;;3.30;1.70;;;13.40;58.40;;;12.15;60.68;100938.22;12164456;19;20035;-88
2022/11/07 08:46:04;;;;;;;1.75;1.65;;;13.50;58.50;;;12.34;60.77;100953.69;12160322;19;20482;-88
2022/11/07 08:50:07;;;;;;;1.73;1.63;;;13.50;58.50;;;12.45;60.75;100963.53;12157210;19;20021;-90
2022/11/07 08:54:10;;;;;;;1.50;1.40;;;13.60;58.50;;;12.45;60.72;100942.56;12159041;19;20300;-88
2022/11/07 08:58:13;;;;;;;1.73;1.63;;;13.60;58.60;;;12.48;60.93;100945.88;12153393;19;20014;-89
2022/11/07 09:02:15;;;;;;;1.55;1.45;;;13.70;58.90;;;12.57;60.81;100936.63;12154230;19;20006;-90
2022/11/07 09:06:17;;;;;;;1.70;1.60;;;13.80;58.60;;;12.65;60.88;100939.63;12160173;19;20279;-89
2022/11/07 09:10:19;;;;;;;1.40;1.30;;;13.90;58.60;;;12.86;60.74;100957.59;12156090;19;20391;-89
2022/11/07 09:14:21;;;;;;;1.42;1.33;;;13.90;58.50;;;12.90;60.83;100959.91;12160667;19;20026;-90
2022/11/07 09:18:22;;;;;;;1.40;1.30;;;14.10;58.50;;;12.92;60.71;100951.97;12163413;19;20022;-89
2022/11/07 09:22:24;;;;;;;4.25;1.63;;;14.10;58.30;;;13.09;60.71;100975.38;12168773;19;20043;-91
2022/11/07 09:26:25;;;;;;;1.38;1.27;;;14.20;58.30;;;13.13;60.83;100963.75;12162187;19;20018;-90
2022/11/07 09:30:27;;;;;;;1.50;1.40;;;14.30;58.40;;;12.76;60.77;100900.50;12170963;19;20053;-89
2022/11/07 09:34:28;;;;;;;1.50;1.30;;;14.60;58.40;;;13.15;60.85;100969.75;12173497;19;20134;-91
2022/11/07 09:38:31;;;;;;;1.08;1.05;;;14.40;58.30;;;13.18;60.93;100953.84;12178890;19;20018;-90
2022/11/07 09:43:01;;;;;;;1.40;1.30;;;14.50;58.30;;;13.38;60.66;100976.22;12168431;19;20924;-90
2022/11/07 09:47:21;;;;;;;1.60;1.50;;;14.50;58.20;;;13.35;60.72;100959.81;12169167;19;20306;-90
2022/11/07 09:51:37;;;;;;;1.45;1.35;;;14.60;58.20;;;13.32;60.77;100933.81;12169568;19;20021;-90
2022/11/07 09:55:51;;;;;;;;;;;14.70;58.20;;;13.55;60.69;100969.88;12170646;19;20022;-90
2022/11/07 10:00:00;;;;;;;1.63;1.25;;;14.80;58.40;;;13.70;60.66;100979.41;12165667;19;20267;-91
2022/11/07 10:04:02;;;;;;;1.63;1.13;;;14.90;58.10;;;13.84;60.81;100981.13;12176536;19;20038;-90
2022/11/07 10:08:24;;;;;;;1.40;1.30;;;15.00;58.20;;;13.70;60.66;100947.91;12179052;19;20099;-89
2022/11/07 10:12:56;;;;;;;2.83;1.45;;;15.20;58.10;;;14.13;60.68;100989.75;12169215;19;20025;-89
2022/11/07 10:17:35;;;;;;;1.17;1.08;;;15.30;58.20;;;14.22;60.61;100976.94;12173800;19;20018;-90
2022/11/07 10:22:03;;;;;;;1.98;1.50;;;15.40;57.90;;;14.33;60.70;100969.19;12168670;19;20014;-90
2022/11/07 10:26:10;;;;;;;1.35;1.20;;;15.60;57.80;;;14.43;60.57;100959.75;12170376;19;20098;-87
2022/11/07 10:30:19;;;;;;;2.35;1.35;;;15.70;57.80;;;14.59;60.59;100972.72;12169645;19;20147;-90
2022/11/07 10:35:23;;;;;;;1.25;1.20;;;15.80;57.60;;;14.71;60.43;100982.38;12173494;19;20083;-90
2022/11/07 10:39:24;;;;;;;1.40;1.30;;;15.90;57.40;;;14.68;60.43;100947.59;12165108;19;20022;-88
2022/11/07 10:43:32;;;;;;;1.58;1.40;;;16.00;57.40;;;14.89;60.43;100976.81;12161323;19;20407;-89
2022/11/07 10:47:34;;;;;;;1.17;1.05;;;16.10;57.40;;;14.81;60.40;100959.78;12160747;19;21056;-90
2022/11/07 10:51:39;;;;;;;1.33;1.25;;;16.10;57.30;;;14.91;60.27;100969.69;12167894;19;20022;-90
2022/11/07 10:55:47;;;;;;;1.73;1.20;;;16.20;57.20;;;14.99;60.20;100962.09;12162636;19;20029;-89
2022/11/07 10:59:51;;;;;;;1.30;1.20;;;16.20;57.20;;;15.08;60.16;100955.34;12164236;19;20029;-88
2022/11/07 11:03:53;;;;;;;1.13;1.07;;;16.20;57.10;;;15.07;60.19;100954.50;12164783;19;20036;-89
2022/11/07 11:08:05;;;;;;;1.75;1.15;;;16.30;57.20;;;14.92;60.19;100924.84;12165400;19;20033;-87
2022/11/07 11:12:12;;;;;;;1.48;1.17;;;16.30;57.20;;;15.19;60.11;100958.03;12164032;19;20047;-90
2022/11/07 11:16:28;;;;;;;2.50;1.40;;;16.60;57.10;;;14.98;60.04;100911.25;12162673;19;20512;-90
2022/11/07 11:20:38;;;;;;;1.10;0.90;;;16.40;56.90;;;15.29;59.84;100953.81;12164615;19;20047;-88
2022/11/07 11:24:40;;;;;;;1.30;1.20;;;16.40;56.90;;;15.33;59.91;100952.63;12168620;19;20089;-88
2022/11/07 11:28:48;;;;;;;1.83;1.20;;;16.50;57.10;;;15.25;59.83;100929.50;12170812;19;20463;-89
2022/11/07 11:33:14;;;;;;;2.17;0.88;;;16.60;57.10;;;15.35;59.93;100931.50;12167386;19;20434;-88
2022/11/07 11:37:22;;;;;;;1.75;0.82;;;16.60;57.00;;;15.53;59.84;100948.59;12174960;19;20018;-88
2022/11/07 11:41:36;;;;;;;1.42;1.17;;;16.70;56.90;;;15.42;59.68;100922.22;12171498;19;20018;-88
2022/11/07 11:46:25;;;;;;;2.33;1.17;;;16.70;56.50;;;15.59;59.68;100934.97;12167718;19;20022;-89
2022/11/07 11:50:44;;;;;;;1.30;1.00;;;16.80;56.70;;;15.56;59.54;100915.94;12172011;19;20886;-89
2022/11/07 11:54:47;;;;;;;1.15;1.00;;;16.80;56.60;;;15.61;59.70;100911.19;12172673;19;20026;-89
2022/11/07 11:59:10;;;;;;;1.30;0.93;;;16.80;56.90;;;15.72;59.71;100913.06;12161642;19;20775;-88
2022/11/07 12:03:55;;;;;;;1.98;1.20;;;16.90;56.80;;;15.72;59.62;100913.06;12170359;19;20018;-88
2022/11/07 12:08:19;;;;;;;2.17;1.15;;;17.10;56.70;;;16.04;59.59;100934.34;12161077;19;20019;-89
2022/11/07 12:12:34;;;;;;;3.33;0.90;;;17.20;56.50;;;16.10;59.31;100940.00;12160469;19;20035;-89
2022/11/07 12:16:57;;;;;;;1.95;0.98;;;17.30;56.20;;;16.16;59.55;100938.69;12161939;19;20260;-88
2022/11/07 12:21:31;;;;;;;5.00;1.30;;;17.30;56.40;;;16.22;59.32;100940.88;12163200;19;20014;-89
2022/11/07 12:26:00;;;;;;;3.00;1.00;;;17.40;56.30;;;16.28;59.28;100935.16;12161503;19;20395;-89
2022/11/07 12:30:43;;;;;;;0.98;0.93;;;17.40;56.20;;;16.31;59.30;100937.56;12163636;19;20026;-89
2022/11/07 12:35:42;;;;;;;0.95;0.70;;;17.50;55.90;;;16.35;59.20;100933.72;12161260;19;20401;-88
2022/11/07 12:40:22;;;;;;;1.20;1.10;;;17.50;55.90;;;16.42;59.05;100946.41;12155070;19;20015;-90
2022/11/07 12:44:59;;;;;;;1.55;1.10;;;17.50;55.90;;;16.44;59.10;100931.31;12174164;19;20018;-90
2022/11/07 12:49:27;;;;;;;1.00;1.00;;;17.60;56.00;;;16.46;59.03;100934.69;12169603;19;20011;-89
2022/11/07 12:54:22;;;;;;;1.77;1.00;;;17.60;55.90;;;16.44;59.07;100939.22;12173866;19;20022;-90
2022/11/07 12:58:30;;;;;;;1.23;1.13;;;17.60;56.00;;;16.46;58.98;100937.31;12150691;19;20014;-89
2022/11/07 13:03:16;;;;;;;1.30;1.20;;;17.60;55.80;;;16.45;58.88;100939.13;12163784;19;20403;-90
2022/11/07 13:07:44;;;;;;;1.63;1.10;;;17.70;55.90;;;16.48;58.69;100946.78;12170695;19;20434;-90
2022/11/07 13:12:10;;;;;;;2.70;1.20;;;17.60;55.80;;;16.42;58.84;100934.09;12181638;19;20310;-89
2022/11/07 13:16:29;;;;;;;1.48;1.00;;;17.60;55.90;;;16.48;58.75;100938.88;12180728;19;20292;-89
2022/11/07 13:20:30;;;;;;;2.25;1.08;;;17.60;55.80;;;16.41;58.78;100923.66;12183892;19;20486;-89
2022/11/07 13:24:48;;;;;;;1.83;1.08;;;17.60;55.80;;;16.28;58.71;100921.97;12179406;19;20014;-89
2022/11/07 13:29:00;;;;;;;1.90;1.23;;;17.80;55.70;;;16.42;58.44;100949.03;12170385;19;20256;-90
2022/11/07 13:33:03;;;;;;;2.28;1.00;;;17.50;55.60;;;16.38;58.50;100938.75;12178743;19;20767;-90
2022/11/07 13:37:05;;;;;;;1.98;1.65;;;17.50;55.80;;;16.48;58.50;100951.25;12177824;19;20309;-90
2022/11/07 13:41:07;;;;;;;1.75;1.02;;;17.50;55.70;;;16.50;58.56;100959.84;12178667;19;20017;-89
2022/11/07 13:45:40;;;;;;;0.80;0.80;;;17.50;55.80;;;16.42;58.30;100955.19;12175958;19;20021;-89
2022/11/07 13:49:46;;;;;;;1.48;0.90;;;17.50;55.90;;;16.35;58.48;100938.16;12173080;19;20756;-89
2022/11/07 13:54:26;;;;;;;1.08;1.00;;;17.60;55.90;;;16.48;58.32;100953.88;12177638;19;20608;-89
2022/11/07 13:58:30;;;;;;;2.45;1.05;;;17.50;56.00;;;16.48;58.25;100953.88;12171466;19;20378;-90
2022/11/07 14:02:33;;;;;;;1.63;1.20;;;17.50;56.00;;;16.40;58.34;100949.19;12170670;19;20815;-89
2022/11/07 14:06:36;;;;;;;1.67;1.20;;;17.50;55.90;;;16.35;58.47;100933.72;12172584;19;20792;-89
2022/11/07 14:10:45;;;;;;;1.42;1.13;;;17.50;56.10;;;16.41;58.29;100936.84;12172581;19;20014;-89
2022/11/07 14:14:53;;;;;;;2.78;1.00;;;17.60;56.10;;;16.38;58.41;100937.91;12172874;19;20598;-89
2022/11/07 14:19:01;;;;;;;1.08;0.90;;;17.50;56.10;;;16.15;58.34;100889.59;12168702;19;20022;-89
2022/11/07 14:23:03;;;;;;;1.40;1.15;;;17.50;56.00;;;16.36;58.38;100930.13;12173738;19;20037;-89
2022/11/07 14:27:12;;;;;;;1.27;1.10;;;17.40;56.00;;;16.31;58.29;100921.75;12174671;19;20019;-89
2022/11/07 14:31:33;;;;;;;1.45;1.05;;;17.40;56.00;;;16.37;58.11;100934.44;12177866;19;20129;-89
2022/11/07 14:35:35;;;;;;;0.95;0.90;;;17.40;56.10;;;16.39;58.15;100926.44;12176615;19;20022;-88
2022/11/07 14:39:37;;;;;;;1.60;1.20;;;17.40;56.20;;;16.41;58.44;100921.03;12175189;19;20018;-89
2022/11/07 14:43:39;;;;;;;1.75;1.30;;;17.40;56.10;;;16.42;58.30;100922.69;12172422;19;20022;-89
2022/11/07 14:47:43;;;;;;;1.75;1.15;;;17.40;56.00;;;16.43;58.09;100935.75;12169592;19;20395;-90
2022/11/07 14:51:44;;;;;;;1.40;1.00;;;17.60;56.20;;;16.36;58.40;100919.59;12170714;19;20018;-89
2022/11/07 14:55:55;;;;;;;1.20;1.00;;;17.30;56.00;;;16.35;58.02;100928.44;12170362;19;20488;-89
2022/11/07 14:59:56;;;;;;;1.58;1.10;;;17.30;56.00;;;16.38;57.95;100925.56;12168302;19;20014;-89
2022/11/07 15:04:15;;;;;;;2.33;1.10;;;17.30;56.00;;;16.24;58.07;100899.44;12171606;19;20222;-88
2022/11/07 15:08:35;;;;;;;1.23;1.13;;;17.30;55.90;;;16.18;58.05;100899.06;12171059;19;20018;-89
2022/11/07 15:13:00;;;;;;;1.27;0.98;;;17.30;56.00;;;16.18;58.21;100905.19;12176116;19;20018;-88
2022/11/07 15:17:05;;;;;;;1.05;1.02;;;17.20;56.00;;;15.97;58.14;100877.81;12175554;19;20476;-88
2022/11/07 15:21:23;;;;;;;2.85;1.20;;;17.20;56.10;;;16.08;57.62;100904.19;12178177;19;20348;-88
2022/11/07 15:25:37;;;;;;;0.93;0.88;;;17.20;56.10;;;16.20;58.07;100924.31;12176591;19;20798;-88
2022/11/07 15:29:51;;;;;;;3.90;0.95;;;17.30;56.10;;;16.14;57.98;100923.00;12168536;19;20052;-88
2022/11/07 15:33:57;;;;;;;2.60;1.30;;;17.10;56.10;;;16.19;58.04;100935.00;12173547;19;20022;-89
2022/11/07 15:38:00;;;;;;;1.23;1.13;;;17.10;56.10;;;16.09;58.00;100921.66;12164024;19;20939;-89
2022/11/07 15:42:02;;;;;;;5.32;3.05;;;17.10;56.10;;;16.17;58.31;100927.19;12179859;19;20010;-88
2022/11/07 15:46:33;;;;;;;3.83;3.40;;;17.10;56.20;;;16.05;58.18;100918.44;12175871;19;20109;-90
2022/11/07 15:50:42;;;;;;;3.95;3.38;;;17.10;56.20;;;16.05;58.08;100922.88;12171627;19;20044;-91
2022/11/07 15:54:43;;;;;;;2.20;2.00;;;17.30;56.30;;;16.17;58.10;100936.91;12178653;19;20025;-91
2022/11/07 15:58:45;;;;;;;2.40;1.50;;;17.10;56.30;;;15.90;58.00;100893.22;12179520;19;20022;-91
2022/11/07 16:02:47;;;;;;;2.15;1.75;;;17.10;56.20;;;16.13;58.04;100938.94;12174701;19;20398;-90
2022/11/07 16:06:49;;;;;;;2.67;1.55;;;17.10;56.20;;;16.03;58.10;100924.75;12177757;19;20014;-90
2022/11/07 16:10:57;;;;;;;1.90;0.90;;;17.10;56.30;;;16.13;58.04;100941.56;12181544;19;20045;-90
2022/11/07 16:14:58;;;;;;;1.10;1.00;;;17.10;56.20;;;16.12;57.93;100937.22;12176551;19;20577;-91
2022/11/07 16:19:00;;;;;;;2.75;1.20;;;17.00;56.20;;;16.07;57.92;100942.88;12181930;19;20949;-90
2022/11/07 16:23:02;;;;;;;1.50;0.77;;;17.20;56.20;;;16.13;57.85;100947.66;12178800;19;20147;-91
2022/11/07 16:27:04;;;;;;;1.42;1.08;;;17.10;56.10;;;15.68;58.05;100878.16;12176920;19;20034;-90
2022/11/07 16:31:06;;;;;;;1.73;0.95;;;17.10;56.20;;;15.69;58.01;100896.53;12176138;19;20376;-91
2022/11/07 16:35:09;;;;;;;2.97;1.10;;;17.20;56.20;;;16.09;57.95;100953.28;12171748;19;20055;-91
2022/11/07 16:39:19;;;;;;;2.67;1.17;;;16.90;56.10;;;15.91;57.74;100934.44;12174178;19;20129;-90
2022/11/07 16:43:21;;;;;;;2.67;1.40;;;17.00;56.10;;;15.77;57.94;100917.03;12172322;19;20014;-91
2022/11/07 16:47:23;;;;;;;3.80;1.20;;;16.90;56.10;;;15.99;57.87;100960.22;12175810;19;20018;-90
2022/11/07 16:51:25;;;;;;;2.10;1.27;;;17.20;56.30;;;15.83;57.94;100942.91;12178477;19;20118;-90
2022/11/07 16:55:27;;;;;;;2.08;1.20;;;16.90;56.20;;;15.75;57.78;100934.72;12176504;19;20014;-90
2022/11/07 16:59:29;;;;;;;1.05;1.02;;;16.90;56.20;;;15.84;57.89;100952.47;12170738;19;20042;-91
2022/11/07 17:03:32;;;;;;;3.17;1.30;;;16.80;56.20;;;15.95;58.03;100977.19;12173304;19;20606;-91
2022/11/07 17:07:33;;;;;;;1.73;1.15;;;17.00;56.30;;;15.52;57.81;100906.56;12171848;19;20025;-89
2022/11/07 17:11:36;;;;;;;3.55;1.55;;;16.80;56.20;;;15.90;57.84;100981.00;12171912;19;20014;-90
2022/11/07 17:15:40;;;;;;;2.83;1.38;;;17.00;56.30;;;15.77;57.76;100968.81;12173636;19;20015;-90